createdAt,value
2023-01-09T00:00:09.991Z,81.18
2023-01-09T00:03:32.779Z,81.07
2023-01-09T00:06:35.745Z,81.26
2023-01-09T00:09:38.572Z,81.10
2023-01-09T00:12:41.462Z,81.30
2023-01-09T00:15:44.303Z,81.46
2023-01-09T00:18:47.231Z,81.47
2023-01-09T00:21:49.980Z,81.35
2023-01-09T00:24:52.771Z,81.61
2023-01-09T00:27:55.530Z,81.47
2023-01-09T00:31:00.603Z,81.43
2023-01-09T00:34:07.363Z,81.26
2023-01-09T00:37:12.078Z,80.92
2023-01-09T00:40:16.830Z,81.10
2023-01-09T00:43:22.329Z,81.35
2023-01-09T00:46:30.727Z,81.15
2023-01-09T00:49:38.010Z,81.39
2023-01-09T00:52:41.281Z,81.38
2023-01-09T00:55:44.261Z,81.40
2023-01-09T00:58:48.219Z,81.36
2023-01-09T01:01:51.462Z,81.56
2023-01-09T01:05:13.442Z,81.40
2023-01-09T01:08:19.217Z,81.65
2023-01-09T01:11:22.810Z,81.54
2023-01-09T01:14:27.103Z,81.54
2023-01-09T01:17:29.897Z,81.54
2023-01-09T01:20:32.753Z,81.66
2023-01-09T01:23:37.136Z,81.77
2023-01-09T01:26:39.961Z,81.84
2023-01-09T01:29:42.836Z,81.62
2023-01-09T01:32:46.182Z,81.95
2023-01-09T01:35:50.018Z,81.66
2023-01-09T01:38:53.232Z,82.18
2023-01-09T01:41:56.068Z,81.92
2023-01-09T01:45:00.877Z,81.94
2023-01-09T01:48:14.012Z,81.87
2023-01-09T01:51:19.700Z,81.97
2023-01-09T01:54:26.522Z,82.13
2023-01-09T01:57:31.081Z,82.06
2023-01-09T02:00:41.947Z,82.12
2023-01-09T02:03:45.812Z,81.91
2023-01-09T02:06:52.227Z,81.78
2023-01-09T02:09:55.521Z,81.82
2023-01-09T02:12:59.213Z,81.68
2023-01-09T02:16:11.105Z,81.45
2023-01-09T02:19:36.019Z,81.40
2023-01-09T02:23:00.505Z,81.43
2023-01-09T02:26:15.250Z,81.29
2023-01-09T02:29:56.599Z,81.41
2023-01-09T02:33:39.586Z,81.71
2023-01-09T02:36:59.227Z,81.31
2023-01-09T02:40:19.522Z,81.48
2023-01-09T02:43:23.632Z,81.48
2023-01-09T02:46:26.527Z,81.61
2023-01-09T02:49:29.741Z,81.64
2023-01-09T02:52:35.512Z,81.59
2023-01-09T02:55:57.206Z,81.63
2023-01-09T02:59:38.408Z,81.41
2023-01-09T03:03:27.750Z,81.90
2023-01-09T03:07:08.159Z,81.67
2023-01-09T03:11:00.698Z,81.58
2023-01-09T03:14:11.627Z,81.73
2023-01-09T03:17:22.927Z,81.72
2023-01-09T03:20:27.944Z,81.43
2023-01-09T03:24:05.943Z,81.38
2023-01-09T03:27:09.523Z,81.51
2023-01-09T03:30:12.924Z,81.37
2023-01-09T03:33:15.673Z,81.14
2023-01-09T03:36:20.833Z,80.92
2023-01-09T03:39:23.601Z,80.76
2023-01-09T03:42:26.483Z,80.93
2023-01-09T03:45:29.443Z,80.99
2023-01-09T03:48:33.068Z,80.73
2023-01-09T03:51:35.770Z,80.96
2023-01-09T03:54:39.441Z,80.96
2023-01-09T03:57:42.420Z,80.83
2023-01-09T04:00:46.753Z,81.14
2023-01-09T04:03:49.623Z,80.92
2023-01-09T04:06:52.374Z,81.05
2023-01-09T04:09:55.071Z,81.02
2023-01-09T04:12:57.897Z,81.13
2023-01-09T04:16:00.947Z,81.38
2023-01-09T04:19:03.790Z,81.38
2023-01-09T04:22:06.503Z,81.32
2023-01-09T04:25:09.565Z,81.20
2023-01-09T04:28:12.425Z,81.29
2023-01-09T04:31:15.341Z,81.39
2023-01-09T04:34:18.586Z,81.24
2023-01-09T04:37:22.908Z,81.26
2023-01-09T04:40:25.785Z,81.67
2023-01-09T04:43:28.558Z,81.61
2023-01-09T04:46:31.431Z,81.46
2023-01-09T04:49:34.521Z,81.67
2023-01-09T04:52:39.008Z,81.62
2023-01-09T04:55:43.040Z,81.36
2023-01-09T04:58:45.751Z,81.52
2023-01-09T05:01:48.580Z,81.89
2023-01-09T05:04:51.673Z,81.97
2023-01-09T05:07:54.633Z,81.94
2023-01-09T05:10:57.417Z,81.82
2023-01-09T05:14:00.213Z,81.87
2023-01-09T05:17:02.930Z,81.62
2023-01-09T05:20:06.366Z,81.82
2023-01-09T05:23:09.338Z,81.68
2023-01-09T05:26:12.086Z,81.63
2023-01-09T05:29:14.791Z,81.92
2023-01-09T05:32:19.703Z,81.74
2023-01-09T05:35:23.215Z,81.71
2023-01-09T05:38:26.081Z,81.86
2023-01-09T05:41:28.867Z,81.92
2023-01-09T05:44:31.570Z,81.87
2023-01-09T05:47:34.409Z,82.01
2023-01-09T05:50:37.384Z,81.83
2023-01-09T05:53:41.072Z,82.10
2023-01-09T05:56:43.859Z,82.09
2023-01-09T05:59:46.736Z,81.84
2023-01-09T06:02:49.558Z,81.88
2023-01-09T06:05:52.395Z,81.95
2023-01-09T06:08:55.370Z,81.97
2023-01-09T06:11:58.562Z,81.95
2023-01-09T06:15:01.532Z,82.10
2023-01-09T06:18:04.814Z,81.90
2023-01-09T06:21:07.702Z,81.79
2023-01-09T06:24:10.678Z,82.29
2023-01-09T06:27:13.658Z,82.41
2023-01-09T06:30:16.828Z,82.47
2023-01-09T06:33:20.177Z,82.46
2023-01-09T06:36:23.219Z,82.42
2023-01-09T06:39:26.016Z,82.51
2023-01-09T06:42:30.910Z,82.28
2023-01-09T06:45:34.079Z,82.34
2023-01-09T06:48:37.026Z,82.30
2023-01-09T06:51:39.963Z,82.29
2023-01-09T06:54:42.751Z,82.35
2023-01-09T06:57:45.622Z,82.21
2023-01-09T07:00:49.711Z,82.25
2023-01-09T07:03:52.724Z,82.48
2023-01-09T07:06:55.501Z,82.73
2023-01-09T07:09:58.221Z,82.34
2023-01-09T07:13:01.322Z,82.76
2023-01-09T07:16:05.601Z,82.77
2023-01-09T07:19:08.465Z,82.57
2023-01-09T07:22:11.499Z,82.87
2023-01-09T07:25:14.302Z,83.15
2023-01-09T07:28:17.089Z,82.78
2023-01-09T07:31:19.912Z,82.99
2023-01-09T07:34:22.909Z,82.55
2023-01-09T07:37:25.917Z,82.96
2023-01-09T07:40:28.697Z,82.93
2023-01-09T07:43:31.503Z,83.14
2023-01-09T07:46:34.402Z,83.33
2023-01-09T07:49:37.402Z,83.10
2023-01-09T07:52:40.210Z,83.11
2023-01-09T07:55:43.813Z,83.12
2023-01-09T07:58:46.760Z,83.18
2023-01-09T08:01:49.627Z,83.21
2023-01-09T08:04:52.565Z,83.37
2023-01-09T08:07:55.276Z,83.36
2023-01-09T08:10:58.147Z,83.45
2023-01-09T08:14:00.906Z,83.53
2023-01-09T08:17:03.740Z,83.45
2023-01-09T08:20:06.983Z,83.61
2023-01-09T08:23:09.833Z,83.49
2023-01-09T08:26:12.778Z,83.62
2023-01-09T08:29:16.833Z,83.61
2023-01-09T08:32:19.638Z,83.52
2023-01-09T08:35:22.596Z,83.63
2023-01-09T08:38:25.409Z,83.73
2023-01-09T08:41:46.980Z,83.65
2023-01-09T08:45:08.481Z,83.68
2023-01-09T08:48:11.864Z,83.86
2023-01-09T08:51:15.171Z,83.68
2023-01-09T08:54:17.888Z,83.45
2023-01-09T08:57:20.630Z,83.58
2023-01-09T09:00:25.259Z,83.51
2023-01-09T09:03:28.153Z,83.33
2023-01-09T09:06:32.538Z,83.42
2023-01-09T09:09:35.271Z,83.38
2023-01-09T09:12:38.030Z,83.25
2023-01-09T09:15:40.977Z,83.14
2023-01-09T09:18:43.937Z,83.15
2023-01-09T09:21:46.911Z,83.54
2023-01-09T09:24:49.679Z,83.38
2023-01-09T09:27:53.386Z,83.54
2023-01-09T09:30:56.395Z,83.54
2023-01-09T09:33:59.182Z,83.54
2023-01-09T09:37:02.110Z,83.58
2023-01-09T09:40:17.870Z,83.40
2023-01-09T09:43:52.902Z,83.29
2023-01-09T09:46:55.633Z,83.45
2023-01-09T09:50:16.745Z,83.44
2023-01-09T09:53:30.608Z,83.63
2023-01-09T09:56:40.679Z,83.29
2023-01-09T09:59:44.682Z,83.65
2023-01-09T10:02:53.695Z,83.56
2023-01-09T10:06:00.501Z,83.30
2023-01-09T10:09:20.691Z,83.19
2023-01-09T10:12:30.738Z,83.58
2023-01-09T10:15:50.246Z,83.58
2023-01-09T10:18:58.918Z,83.60
2023-01-09T10:22:01.594Z,83.28
2023-01-09T10:25:29.631Z,83.64
2023-01-09T10:28:41.400Z,83.56
2023-01-09T10:32:11.914Z,83.51
2023-01-09T10:35:47.304Z,83.52
2023-01-09T10:38:56.022Z,83.73
2023-01-09T10:42:06.518Z,83.78
2023-01-09T10:45:28.742Z,83.54
2023-01-09T10:48:37.589Z,83.70
2023-01-09T10:51:48.989Z,83.81
2023-01-09T10:54:56.913Z,83.86
2023-01-09T10:58:04.527Z,83.91
2023-01-09T11:01:07.907Z,83.89
2023-01-09T11:04:22.938Z,83.85
2023-01-09T11:07:31.788Z,83.77
2023-01-09T11:10:55.410Z,84.67
2023-01-09T11:14:18.579Z,85.78
2023-01-09T11:17:26.983Z,85.13
2023-01-09T11:20:30.270Z,84.50
2023-01-09T11:23:33.647Z,84.38
2023-01-09T11:26:36.495Z,84.28
2023-01-09T11:29:40.455Z,85.19
2023-01-09T11:32:47.359Z,85.97
2023-01-09T11:35:56.110Z,84.59
2023-01-09T11:39:01.203Z,84.42
2023-01-09T11:42:07.045Z,84.37
2023-01-09T11:45:32.418Z,84.41
2023-01-09T11:48:57.219Z,84.31
2023-01-09T11:52:20.573Z,84.57
2023-01-09T11:55:27.254Z,84.28
2023-01-09T11:58:35.295Z,84.33
2023-01-09T12:02:00.339Z,84.28
2023-01-09T12:05:12.184Z,84.34
2023-01-09T12:08:33.169Z,84.33
2023-01-09T12:12:01.534Z,84.19
2023-01-09T12:15:47.080Z,84.27
2023-01-09T12:19:05.831Z,84.14
2023-01-09T12:22:36.848Z,84.09
2023-01-09T12:26:16.004Z,84.09
2023-01-09T12:29:38.059Z,84.06
2023-01-09T12:32:53.827Z,84.06
2023-01-09T12:36:29.453Z,83.92
2023-01-09T12:39:57.512Z,84.25
2023-01-09T12:43:07.340Z,84.15
2023-01-09T12:46:23.197Z,84.27
2023-01-09T12:49:37.699Z,84.15
2023-01-09T12:52:56.391Z,84.16
2023-01-09T12:56:03.284Z,84.01
2023-01-09T12:59:45.158Z,84.24
2023-01-09T13:03:03.784Z,84.22
2023-01-09T13:06:16.255Z,84.08
2023-01-09T13:09:37.663Z,84.15
2023-01-09T13:12:44.071Z,84.11
2023-01-09T13:15:53.148Z,84.10
2023-01-09T13:19:13.150Z,84.09
2023-01-09T13:22:18.182Z,84.08
2023-01-09T13:26:04.810Z,84.22
2023-01-09T13:29:10.323Z,84.46
2023-01-09T13:32:21.114Z,84.42
2023-01-09T13:35:24.298Z,84.22
2023-01-09T13:38:30.617Z,84.29
2023-01-09T13:41:52.262Z,84.19
2023-01-09T13:45:08.751Z,84.19
2023-01-09T13:48:12.134Z,84.26
2023-01-09T13:51:42.901Z,84.32
2023-01-09T13:54:52.033Z,84.36
2023-01-09T13:58:04.482Z,84.32
2023-01-09T14:01:34.573Z,84.45
2023-01-09T14:04:43.100Z,84.47
2023-01-09T14:07:49.543Z,84.33
2023-01-09T14:11:04.107Z,84.43
2023-01-09T14:14:24.295Z,84.51
2023-01-09T14:17:35.430Z,84.62
2023-01-09T14:20:42.326Z,84.60
2023-01-09T14:23:59.234Z,84.79
2023-01-09T14:27:04.044Z,84.54
2023-01-09T14:30:26.185Z,84.68
2023-01-09T14:33:30.951Z,84.80
2023-01-09T14:36:35.608Z,84.69
2023-01-09T14:39:43.525Z,84.86
2023-01-09T14:42:53.322Z,85.05
2023-01-09T14:46:03.741Z,84.90
2023-01-09T14:49:22.388Z,84.90
2023-01-09T14:52:30.399Z,84.90
2023-01-09T14:55:44.059Z,84.77
2023-01-09T14:58:46.895Z,85.03
2023-01-09T15:01:55.458Z,85.47
2023-01-09T15:05:06.069Z,86.52
2023-01-09T15:08:17.242Z,87.34
2023-01-09T15:11:20.204Z,87.20
2023-01-09T15:14:40.428Z,85.39
2023-01-09T15:17:46.557Z,84.49
2023-01-09T15:20:57.944Z,84.29
2023-01-09T15:24:28.783Z,84.63
2023-01-09T15:27:31.797Z,84.68
2023-01-09T15:30:36.398Z,84.88
2023-01-09T15:33:41.017Z,84.89
2023-01-09T15:36:44.031Z,85.19
2023-01-09T15:39:47.958Z,84.84
2023-01-09T15:42:58.125Z,85.11
2023-01-09T15:46:01.642Z,84.84
2023-01-09T15:49:04.649Z,85.18
2023-01-09T15:52:12.122Z,85.36
2023-01-09T15:55:35.073Z,85.00
2023-01-09T15:58:49.763Z,84.68
2023-01-09T16:02:24.486Z,84.67
2023-01-09T16:05:31.478Z,84.88
2023-01-09T16:08:42.519Z,84.85
2023-01-09T16:11:55.496Z,85.09
2023-01-09T16:15:00.366Z,85.28
2023-01-09T16:18:06.229Z,85.26
2023-01-09T16:21:11.914Z,85.34
2023-01-09T16:24:14.741Z,85.03
2023-01-09T16:27:17.622Z,85.04
2023-01-09T16:30:26.802Z,85.05
2023-01-09T16:33:31.462Z,85.05
2023-01-09T16:36:35.966Z,85.03
2023-01-09T16:39:38.806Z,84.68
2023-01-09T16:43:00.379Z,84.73
2023-01-09T16:46:03.254Z,84.57
2023-01-09T16:49:24.736Z,84.71
2023-01-09T16:52:27.608Z,84.70
2023-01-09T16:55:30.385Z,84.54
2023-01-09T16:58:36.338Z,84.45
2023-01-09T17:01:39.198Z,84.18
2023-01-09T17:04:42.023Z,84.14
2023-01-09T17:07:44.866Z,84.27
2023-01-09T17:10:48.150Z,84.46
2023-01-09T17:13:51.237Z,84.01
2023-01-09T17:16:54.135Z,83.71
2023-01-09T17:19:56.932Z,83.62
2023-01-09T17:22:59.880Z,83.56
2023-01-09T17:26:22.122Z,83.45
2023-01-09T17:29:25.581Z,83.44
2023-01-09T17:32:30.684Z,83.46
2023-01-09T17:35:33.473Z,83.57
2023-01-09T17:38:36.363Z,83.54
2023-01-09T17:41:39.223Z,83.48
2023-01-09T17:44:41.995Z,83.48
2023-01-09T17:47:47.030Z,83.30
2023-01-09T17:50:49.841Z,83.47
2023-01-09T17:53:52.896Z,83.52
2023-01-09T17:56:55.833Z,83.36
2023-01-09T17:59:59.168Z,83.43
2023-01-09T18:03:04.067Z,83.51
2023-01-09T18:06:09.490Z,83.67
2023-01-09T18:09:17.503Z,84.02
2023-01-09T18:12:20.591Z,83.87
2023-01-09T18:15:24.608Z,83.90
2023-01-09T18:18:28.642Z,83.91
2023-01-09T18:21:31.417Z,83.97
2023-01-09T18:24:34.449Z,84.08
2023-01-09T18:27:37.516Z,84.24
2023-01-09T18:30:40.514Z,84.15
2023-01-09T18:33:46.181Z,84.25
2023-01-09T18:36:49.085Z,84.13
2023-01-09T18:39:52.120Z,84.29
2023-01-09T18:42:56.333Z,84.38
2023-01-09T18:45:59.371Z,84.50
2023-01-09T18:49:04.307Z,84.44
2023-01-09T18:52:07.822Z,84.55
2023-01-09T18:55:10.861Z,84.62
2023-01-09T18:58:13.695Z,84.63
2023-01-09T19:01:17.053Z,84.69
2023-01-09T19:04:20.293Z,84.71
2023-01-09T19:07:23.346Z,84.88
2023-01-09T19:10:26.238Z,84.86
2023-01-09T19:13:31.027Z,84.85
2023-01-09T19:16:33.882Z,84.84
2023-01-09T19:19:36.897Z,84.86
2023-01-09T19:22:39.790Z,84.90
2023-01-09T19:25:43.027Z,84.81
2023-01-09T19:28:46.867Z,84.90
2023-01-09T19:31:49.953Z,84.91
2023-01-09T19:34:52.928Z,84.89
2023-01-09T19:37:55.804Z,85.09
2023-01-09T19:41:09.215Z,85.05
2023-01-09T19:44:12.109Z,85.17
2023-01-09T19:47:14.830Z,84.76
2023-01-09T19:50:18.783Z,84.91
2023-01-09T19:53:21.498Z,85.16
2023-01-09T19:56:27.344Z,84.93
2023-01-09T19:59:30.686Z,85.13
2023-01-09T20:02:33.424Z,84.95
2023-01-09T20:05:36.294Z,84.74
2023-01-09T20:08:39.871Z,84.82
2023-01-09T20:11:44.900Z,84.71
2023-01-09T20:14:47.825Z,84.55
2023-01-09T20:17:50.580Z,84.66
2023-01-09T20:20:53.669Z,84.74
2023-01-09T20:23:58.814Z,84.71
2023-01-09T20:27:01.912Z,84.58
2023-01-09T20:30:05.630Z,84.78
2023-01-09T20:33:08.587Z,84.39
2023-01-09T20:36:12.878Z,84.27
2023-01-09T20:39:15.825Z,84.46
2023-01-09T20:42:18.558Z,84.42
2023-01-09T20:45:21.270Z,84.67
2023-01-09T20:48:24.001Z,84.79
2023-01-09T20:51:27.748Z,84.68
2023-01-09T20:54:30.508Z,84.79
2023-01-09T20:57:33.362Z,84.83
2023-01-09T21:00:36.337Z,85.02
2023-01-09T21:03:40.538Z,85.06
2023-01-09T21:06:43.446Z,84.97
2023-01-09T21:09:46.599Z,85.13
2023-01-09T21:12:52.358Z,85.20
2023-01-09T21:16:01.247Z,85.27
2023-01-09T21:19:04.353Z,85.30
2023-01-09T21:22:07.230Z,85.23
2023-01-09T21:25:10.397Z,85.45
2023-01-09T21:28:18.610Z,85.40
2023-01-09T21:31:26.651Z,85.18
2023-01-09T21:34:29.597Z,85.15
2023-01-09T21:37:34.526Z,85.25
2023-01-09T21:40:37.318Z,85.24
2023-01-09T21:43:58.906Z,84.98
2023-01-09T21:47:03.377Z,84.84
2023-01-09T21:50:07.573Z,84.79
2023-01-09T21:53:10.500Z,84.73
2023-01-09T21:56:13.276Z,84.79
2023-01-09T21:59:17.184Z,84.83
2023-01-09T22:02:20.058Z,84.74
2023-01-09T22:05:24.765Z,84.68
2023-01-09T22:08:29.696Z,84.59
2023-01-09T22:11:32.615Z,84.70
2023-01-09T22:14:35.611Z,84.73
2023-01-09T22:17:38.469Z,84.66
2023-01-09T22:20:41.193Z,84.50
2023-01-09T22:23:44.095Z,84.67
2023-01-09T22:26:47.560Z,84.63
2023-01-09T22:29:50.353Z,84.18
2023-01-09T22:32:53.074Z,83.96
2023-01-09T22:35:55.944Z,83.70
2023-01-09T22:39:03.503Z,83.74
2023-01-09T22:42:06.403Z,83.52
2023-01-09T22:45:09.769Z,83.57
2023-01-09T22:48:12.652Z,83.28
2023-01-09T22:51:18.461Z,83.38
2023-01-09T22:54:21.221Z,83.16
2023-01-09T22:57:24.456Z,83.01
2023-01-09T23:00:27.300Z,83.21
2023-01-09T23:03:30.213Z,83.27
2023-01-09T23:06:33.030Z,83.30
2023-01-09T23:09:35.794Z,83.22
2023-01-09T23:12:46.825Z,83.40
2023-01-09T23:15:50.052Z,83.37
2023-01-09T23:18:52.996Z,83.44
2023-01-09T23:21:55.783Z,83.50
2023-01-09T23:24:58.557Z,83.49
2023-01-09T23:28:01.832Z,83.57
2023-01-09T23:31:04.675Z,83.56
2023-01-09T23:34:08.512Z,83.49
2023-01-09T23:37:11.624Z,83.37
2023-01-09T23:40:14.529Z,83.01
2023-01-09T23:43:17.282Z,83.02
2023-01-09T23:46:20.069Z,83.13
2023-01-09T23:49:23.199Z,82.69
2023-01-09T23:52:26.072Z,82.84
2023-01-09T23:55:29.193Z,82.82
2023-01-09T23:58:32.132Z,82.77
